Time;durP1;ratioP1;P1;durP2;ratioP2;P2;SDS_P1;SDS_P2;PMS_P1;PMS_P2;Temp;Humidity;BMP_temperature;BMP_pressure;BME280_temperature;BME280_humidity;BME280_pressure;Samples;Min_cycle;Max_cycle;Signal;HPM_P1;HPM_P2
2022/06/03 00:02:43;;;;;;;6.78;4.65;;;;;;;17.69;69.23;95082.65;1724248;82;21007;-56
2022/06/03 00:05:47;;;;;;;6.47;4.95;;;;;;;17.71;69.35;95088.49;1732807;82;21044;-56
2022/06/03 00:08:35;;;;;;;7.15;4.90;;;;;;;17.72;69.79;95090.02;1732436;82;20975;-56
2022/06/03 00:11:33;;;;;;;5.55;4.55;;;;;;;17.70;69.92;95088.35;1733312;82;21117;-56
2022/06/03 00:14:15;;;;;;;4.62;4.22;;;;;;;17.69;69.39;95079.86;1735866;81;21121;-56
2022/06/03 00:17:12;;;;;;;5.47;4.40;;;;;;;17.67;69.10;95079.59;1697096;83;20975;-57
2022/06/03 00:19:53;;;;;;;6.20;5.05;;;;;;;17.63;69.23;95090.91;1728090;82;21068;-57
2022/06/03 00:23:00;;;;;;;8.23;5.45;;;;;;;17.60;69.88;95093.89;1689886;83;21023;-56
2022/06/03 00:26:11;;;;;;;5.67;4.35;;;;;;;17.57;70.55;95089.30;1701415;82;21904;-56
2022/06/03 00:28:47;;;;;;;6.47;5.00;;;;;;;17.54;71.48;95088.27;1667875;83;21066;-56
2022/06/03 00:31:29;;;;;;;6.00;5.12;;;;;;;17.52;72.16;95094.94;1697390;83;21159;-56
2022/06/03 00:34:28;;;;;;;6.72;6.03;;;;;;;17.51;72.95;95094.02;1710857;82;21453;-57
2022/06/03 00:37:25;;;;;;;7.47;5.97;;;;;;;17.44;73.91;95088.23;1716035;82;21092;-56
2022/06/03 00:40:14;;;;;;;7.92;5.45;;;;;;;17.40;74.56;95095.23;1691808;81;21349;-58
2022/06/03 00:43:06;;;;;;;9.83;5.20;;;;;;;17.36;75.01;95093.28;1723606;82;21009;-56
2022/06/03 00:45:45;;;;;;;6.85;5.35;;;;;;;17.32;75.27;95089.91;1719506;82;20975;-55
2022/06/03 00:48:28;;;;;;;7.05;5.45;;;;;;;17.31;75.57;95092.55;1731267;82;20966;-57
2022/06/03 00:51:33;;;;;;;5.47;4.90;;;;;;;17.34;75.57;95098.56;1702331;82;21553;-56
2022/06/03 00:54:30;;;;;;;7.22;6.15;;;;;;;17.35;75.58;95098.70;1725283;82;21781;-56
2022/06/03 00:57:15;;;;;;;6.17;5.58;;;;;;;17.32;75.63;95094.83;1698677;84;21203;-56
2022/06/03 01:00:18;;;;;;;5.58;5.05;;;;;;;17.34;75.60;95095.16;1695849;83;21065;-56
2022/06/03 01:03:06;;;;;;;5.43;4.90;;;;;;;17.35;75.60;95093.14;1691253;84;20984;-56
2022/06/03 01:06:00;;;;;;;6.25;5.65;;;;;;;17.34;75.64;95089.61;1669490;84;21210;-57
2022/06/03 01:08:52;;;;;;;8.05;5.67;;;;;;;17.36;75.78;95094.67;1697045;84;21164;-56
2022/06/03 01:11:31;;;;;;;7.83;5.90;;;;;;;17.34;75.80;95088.22;1690079;84;21509;-57
2022/06/03 01:14:10;;;;;;;9.13;5.72;;;;;;;17.35;75.74;95086.19;1633983;84;21067;-58
2022/06/03 01:16:55;;;;;;;5.83;5.08;;;;;;;17.34;75.60;95094.39;1695870;84;21047;-56
2022/06/03 01:20:01;;;;;;;9.15;5.50;;;;;;;17.35;75.65;95096.70;1686696;84;21432;-57
2022/06/03 01:22:51;;;;;;;6.12;5.53;;;;;;;17.39;75.62;95089.52;1690116;84;21832;-57
2022/06/03 01:25:52;;;;;;;7.17;5.50;;;;;;;17.34;75.92;95096.55;1728842;82;21011;-57
2022/06/03 01:28:41;;;;;;;6.40;5.25;;;;;;;17.31;76.25;95103.03;1723317;82;21037;-56
2022/06/03 01:31:34;;;;;;;8.30;5.20;;;;;;;17.24;76.60;95094.34;1736952;81;21639;-57
2022/06/03 01:34:29;;;;;;;6.12;5.22;;;;;;;17.18;77.00;95093.47;1692987;82;21104;-55
2022/06/03 01:37:33;;;;;;;8.78;5.75;;;;;;;17.11;77.27;95093.86;1738253;82;21266;-56
2022/06/03 01:40:29;;;;;;;5.65;5.12;;;;;;;17.05;77.81;95098.55;1726145;82;21176;-55
2022/06/03 01:43:23;;;;;;;6.65;5.35;;;;;;;17.03;78.14;95099.66;1718313;82;21230;-56
2022/06/03 01:46:32;;;;;;;9.05;5.45;;;;;;;17.01;78.24;95095.20;1713444;82;21076;-56
2022/06/03 01:49:23;;;;;;;8.35;5.60;;;;;;;16.97;78.28;95096.02;1721200;82;21017;-56
2022/06/03 01:52:12;;;;;;;7.12;4.97;;;;;;;16.93;78.36;95098.23;1682830;83;21332;-57
2022/06/03 01:55:09;;;;;;;7.37;5.40;;;;;;;16.92;78.57;95093.28;1698525;84;20982;-57
2022/06/03 01:58:08;;;;;;;6.92;5.10;;;;;;;16.92;78.74;95093.92;1736790;82;21003;-57
2022/06/03 02:01:21;;;;;;;8.18;5.45;;;;;;;16.91;78.77;95091.00;1726049;82;20967;-56
2022/06/03 02:04:00;;;;;;;8.40;5.35;;;;;;;16.94;78.62;95101.91;1684661;84;21148;-55
2022/06/03 02:06:56;;;;;;;5.65;5.15;;;;;;;16.99;78.55;95108.81;1706919;82;21275;-57
2022/06/03 02:09:52;;;;;;;5.12;4.62;;;;;;;17.07;78.24;95108.59;1667044;84;21582;-57
2022/06/03 02:13:02;;;;;;;6.95;4.97;;;;;;;17.11;77.97;95113.33;1737891;82;21585;-56
2022/06/03 02:15:58;;;;;;;6.40;5.05;;;;;;;17.09;77.66;95112.41;1730152;82;21005;-56
2022/06/03 02:19:05;;;;;;;8.85;5.35;;;;;;;17.05;77.45;95122.95;1699673;84;21067;-57
2022/06/03 02:22:24;;;;;;;7.83;5.53;;;;;;;17.01;77.59;95123.00;1651201;84;21138;-56
2022/06/03 02:25:29;;;;;;;5.45;4.95;;;;;;;17.00;77.68;95120.08;1713772;83;21105;-56
2022/06/03 02:28:29;;;;;;;5.62;4.45;;;;;;;17.00;77.71;95122.86;1711402;83;21577;-56
2022/06/03 02:31:34;;;;;;;7.15;5.15;;;;;;;16.99;77.63;95122.11;1681374;83;20989;-56
2022/06/03 02:34:36;;;;;;;6.10;5.50;;;;;;;16.99;77.78;95132.44;1701585;82;21017;-56
2022/06/03 02:37:15;;;;;;;6.95;5.65;;;;;;;17.00;77.85;95139.53;1720352;80;21233;-56
2022/06/03 02:40:23;;;;;;;6.70;5.70;;;;;;;17.01;77.93;95143.23;1731192;80;21443;-57
2022/06/03 02:47:43;;;;;;;10.53;5.47;;;;;;;17.09;77.05;95146.41;1770676;79;25831;-57
2022/06/03 02:50:27;;;;;;;6.30;5.28;;;;;;;17.06;76.79;95156.46;1725517;82;21515;-56
2022/06/03 02:53:32;;;;;;;7.22;5.65;;;;;;;17.03;76.92;95156.03;1723149;81;21249;-56
2022/06/03 02:56:35;;;;;;;6.40;5.70;;;;;;;17.01;77.06;95159.92;1696571;83;21471;-55
2022/06/03 02:59:33;;;;;;;6.80;4.95;;;;;;;17.00;77.19;95158.99;1735249;81;21470;-56
2022/06/03 03:02:24;;;;;;;6.83;5.28;;;;;;;16.99;77.18;95161.63;1726889;82;20983;-58
2022/06/03 03:05:20;;;;;;;7.12;6.05;;;;;;;17.04;77.11;95167.91;1723753;82;20972;-56
2022/06/03 03:08:25;;;;;;;7.62;6.00;;;;;;;17.05;76.94;95164.66;1724755;81;21128;-56
2022/06/03 03:11:13;;;;;;;6.92;5.70;;;;;;;17.04;77.14;95160.95;1717610;81;21486;-56
2022/06/03 03:14:07;;;;;;;6.83;5.95;;;;;;;17.04;77.06;95163.73;1711067;82;20977;-56
2022/06/03 03:17:11;;;;;;;5.62;5.12;;;;;;;17.05;76.98;95174.39;1737427;81;20895;-55
2022/06/03 03:20:37;;;;;;;7.22;5.67;;;;;;;17.05;76.86;95172.22;1710890;82;20967;-56
2022/06/03 03:23:34;;;;;;;6.70;5.40;;;;;;;17.03;76.76;95173.32;1730436;82;21078;-57
2022/06/03 03:26:30;;;;;;;8.48;6.20;;;;;;;17.02;76.89;95178.74;1727819;82;20948;-56
2022/06/03 03:29:29;;;;;;;7.90;5.25;;;;;;;17.02;77.19;95178.74;1737237;81;20942;-56
2022/06/03 03:32:34;;;;;;;9.33;5.90;;;;;;;17.04;77.26;95188.75;1725449;81;20891;-56
2022/06/03 03:35:21;;;;;;;9.08;5.50;;;;;;;17.04;77.35;95182.59;1712934;82;21020;-56
2022/06/03 03:38:16;;;;;;;11.68;5.42;;;;;;;17.09;77.39;95182.55;1726726;82;21458;-56
2022/06/03 03:41:07;;;;;;;9.95;6.28;;;;;;;17.11;77.51;95188.40;1710621;81;20990;-56
2022/06/03 03:44:28;;;;;;;8.55;6.10;;;;;;;17.11;77.48;95189.15;1726191;82;21168;-56
2022/06/03 03:47:23;;;;;;;6.75;5.47;;;;;;;17.08;77.57;95183.80;1699855;83;21058;-56
2022/06/03 03:50:28;;;;;;;8.05;5.72;;;;;;;17.11;77.54;95187.00;1687170;83;21014;-56
2022/06/03 03:53:33;;;;;;;7.67;5.37;;;;;;;17.12;77.62;95181.59;1710632;83;21720;-56
2022/06/03 03:56:37;;;;;;;7.87;5.53;;;;;;;17.13;77.52;95181.73;1700757;83;20922;-56
2022/06/03 03:59:21;;;;;;;6.30;5.53;;;;;;;17.17;77.17;95181.69;1686743;83;20915;-56
2022/06/03 04:02:13;;;;;;;10.23;6.75;;;;;;;17.15;77.12;95186.19;1710266;83;20934;-57
2022/06/03 04:05:23;;;;;;;6.95;5.72;;;;;;;17.13;77.22;95183.87;1692904;83;21676;-57
2022/06/03 04:08:47;;;;;;;7.40;5.97;;;;;;;17.13;77.21;95185.27;1627799;88;21130;-57
2022/06/03 04:11:44;;;;;;;9.75;6.00;;;;;;;17.17;77.06;95187.86;1697210;83;21000;-58
2022/06/03 04:14:48;;;;;;;7.62;5.55;;;;;;;17.25;77.00;95195.98;1697637;83;20919;-56
2022/06/03 04:17:46;;;;;;;7.72;5.72;;;;;;;17.29;76.93;95189.60;1699195;83;20914;-56
2022/06/03 04:20:57;;;;;;;9.00;5.70;;;;;;;17.32;76.92;95196.34;1697613;83;21454;-56
2022/06/03 04:23:50;;;;;;;6.58;5.42;;;;;;;17.40;76.73;95198.15;1697352;83;21148;-60
2022/06/03 04:26:38;;;;;;;9.08;4.95;;;;;;;17.47;75.38;95197.14;1703557;83;20910;-55
2022/06/03 04:29:34;;;;;;;7.08;4.40;;;;;;;17.52;74.80;95193.71;1694714;83;20971;-55
2022/06/03 04:32:26;;;;;;;7.08;5.05;;;;;;;17.55;74.42;95198.30;1711548;83;20911;-55
2022/06/03 04:35:27;;;;;;;7.80;5.78;;;;;;;17.57;74.03;95204.16;1707519;83;26371;-56
2022/06/03 04:38:33;;;;;;;6.15;5.10;;;;;;;17.58;73.41;95197.34;1698882;83;21482;-56
2022/06/03 04:41:37;;;;;;;5.45;4.28;;;;;;;17.63;73.34;95195.27;1678209;83;20986;-56
2022/06/03 04:44:34;;;;;;;7.28;4.47;;;;;;;17.66;72.84;95193.55;1698744;83;20904;-57
2022/06/03 04:47:28;;;;;;;7.92;5.08;;;;;;;17.63;72.52;95196.66;1666567;83;21022;-56
2022/06/03 04:50:27;;;;;;;5.20;4.20;;;;;;;17.62;72.23;95199.94;1656270;83;21073;-56
2022/06/03 04:53:31;;;;;;;4.83;4.42;;;;;;;17.67;72.61;95197.86;1654878;83;21251;-56
2022/06/03 04:56:40;;;;;;;5.58;4.90;;;;;;;17.69;71.51;95199.53;1649902;86;21458;-56
2022/06/03 04:59:59;;;;;;;5.15;4.65;;;;;;;17.72;69.73;95206.91;1649062;86;21035;-57
2022/06/03 05:02:54;;;;;;;4.87;4.03;;;;;;;17.77;69.32;95209.80;1651214;84;20954;-57
2022/06/03 05:05:38;;;;;;;5.33;4.20;;;;;;;17.79;67.71;95205.14;1650223;85;21089;-56
2022/06/03 05:08:35;;;;;;;6.45;4.40;;;;;;;17.82;66.38;95219.48;1650552;86;21294;-56
2022/06/03 05:11:25;;;;;;;7.25;4.72;;;;;;;17.86;64.75;95222.84;1649788;86;20895;-56
2022/06/03 05:14:06;;;;;;;6.60;4.85;;;;;;;17.85;63.91;95226.23;1650256;86;20950;-57
2022/06/03 05:17:02;;;;;;;9.13;3.95;;;;;;;17.91;64.19;95224.92;1623820;86;21123;-56
2022/06/03 05:19:59;;;;;;;12.00;3.90;;;;;;;17.97;63.49;95220.23;1602320;88;20947;-56
2022/06/03 05:22:55;;;;;;;8.05;4.40;;;;;;;18.06;62.57;95222.89;1598861;89;21814;-56
2022/06/03 05:26:06;;;;;;;3.50;3.20;;;;;;;18.09;60.60;95224.70;1618352;88;21106;-56
2022/06/03 05:28:41;;;;;;;5.67;3.55;;;;;;;18.14;61.32;95226.18;1631556;87;20951;-57
2022/06/03 05:31:38;;;;;;;6.97;3.30;;;;;;;18.19;60.80;95230.45;1620811;88;20971;-55
2022/06/03 05:34:29;;;;;;;6.97;3.83;;;;;;;18.19;60.65;95241.59;1625383;88;20939;-58
2022/06/03 05:37:28;;;;;;;3.05;2.85;;;;;;;18.18;61.17;95237.13;1625306;88;21269;-56
2022/06/03 05:40:17;;;;;;;3.65;3.33;;;;;;;18.21;60.82;95235.52;1623512;88;20963;-57
2022/06/03 05:43:02;;;;;;;6.60;3.60;;;;;;;18.24;59.95;95233.93;1625377;88;20928;-56
2022/06/03 05:45:47;;;;;;;4.12;3.62;;;;;;;18.28;60.56;95236.55;1624564;86;21510;-56
2022/06/03 05:48:46;;;;;;;6.97;3.12;;;;;;;18.33;59.12;95251.17;1661529;85;20964;-61
2022/06/03 05:51:52;;;;;;;3.90;3.00;;;;;;;18.38;58.42;95244.91;1651336;85;21096;-58
2022/06/03 05:54:49;;;;;;;3.58;2.70;;;;;;;18.39;57.72;95243.05;1654502;85;20986;-56
2022/06/03 05:57:28;;;;;;;4.37;3.00;;;;;;;18.45;56.49;95249.45;1656767;85;21132;-56
2022/06/03 06:00:19;;;;;;;3.92;2.72;;;;;;;18.52;56.08;95242.70;1653702;85;21156;-58
2022/06/03 06:02:57;;;;;;;3.80;2.72;;;;;;;18.56;56.48;95244.66;1652836;85;21010;-58
2022/06/03 06:05:57;;;;;;;2.98;2.65;;;;;;;18.61;56.04;95242.59;1648387;85;21184;-61
2022/06/03 06:08:56;;;;;;;6.62;3.25;;;;;;;18.70;53.78;95243.22;1648513;86;20986;-59
2022/06/03 06:11:54;;;;;;;22.62;8.65;;;;;;;18.72;53.46;95244.89;1649112;86;20938;-59
2022/06/03 06:15:02;;;;;;;11.70;5.37;;;;;;;18.73;53.20;95247.03;1628807;86;21522;-58
2022/06/03 06:17:57;;;;;;;5.92;3.58;;;;;;;18.75;53.64;95256.45;1635796;85;20940;-61
2022/06/03 06:21:01;;;;;;;6.42;3.30;;;;;;;18.82;53.98;95256.02;1597095;88;21150;-61
2022/06/03 06:23:37;;;;;;;5.40;2.95;;;;;;;18.86;53.33;95260.01;1650199;83;20962;-61
2022/06/03 06:26:45;;;;;;;7.42;3.20;;;;;;;18.93;53.09;95261.75;1656277;83;20949;-60
2022/06/03 06:29:43;;;;;;;4.47;2.85;;;;;;;19.04;52.68;95256.93;1660718;85;21434;-58
2022/06/03 06:32:38;;;;;;;3.37;2.50;;;;;;;19.11;52.32;95265.64;1670199;84;21148;-61
2022/06/03 06:35:38;;;;;;;3.75;3.20;;;;;;;19.16;52.68;95269.77;1674688;83;21270;-59
2022/06/03 06:42:05;;;;;;;5.33;3.33;;;;;;;19.28;53.03;95277.02;1683000;83;20950;-60
2022/06/03 06:45:12;;;;;;;3.33;2.77;;;;;;;19.23;53.10;95272.89;1662859;85;21171;-58
2022/06/03 06:47:55;;;;;;;6.53;2.60;;;;;;;19.26;53.21;95270.55;1656438;86;21033;-58
2022/06/03 06:50:31;;;;;;;3.80;3.22;;;;;;;19.28;52.39;95269.42;1657668;86;21252;-61
2022/06/03 06:53:17;;;;;;;4.90;3.22;;;;;;;19.29;52.11;95270.95;1660139;84;21549;-60
2022/06/03 06:55:53;;;;;;;3.50;2.52;;;;;;;19.29;52.38;95277.92;1677123;84;20981;-59
2022/06/03 06:58:43;;;;;;;5.05;3.00;;;;;;;19.32;52.41;95272.76;1683655;83;20910;-59
2022/06/03 07:01:23;;;;;;;3.00;2.80;;;;;;;19.39;52.60;95282.08;1648833;86;21100;-57
2022/06/03 07:04:03;;;;;;;11.53;3.75;;;;;;;19.50;53.33;95282.21;1611435;86;26631;-57
2022/06/03 07:06:36;;;;;;;3.87;3.45;;;;;;;19.57;53.80;95281.02;1640822;83;21078;-66
2022/06/03 07:09:38;;;;;;;5.45;2.90;;;;;;;19.61;52.89;95280.16;1661316;83;21363;-59
2022/06/03 07:12:13;;;;;;;3.47;2.87;;;;;;;19.62;52.39;95286.66;1671349;84;20930;-63
2022/06/03 07:15:07;;;;;;;6.50;3.17;;;;;;;19.65;52.50;95287.68;1656011;83;20930;-57
2022/06/03 07:20:57;;;;;;;;;;;;;;;19.67;53.48;95292.92;1664782;84;20997;-61
2022/06/03 07:23:42;;;;;;;3.67;3.37;;;;;;;19.65;53.67;95292.65;1642854;84;20168;-60
2022/06/03 07:26:21;;;;;;;3.20;2.90;;;;;;;19.74;54.17;95300.84;1649666;84;21474;-58
2022/06/03 07:29:12;;;;;;;4.47;3.02;;;;;;;19.89;54.13;95298.71;1673159;84;21058;-61
2022/06/03 07:32:12;;;;;;;2.85;2.50;;;;;;;20.04;53.85;95310.56;1632396;86;21136;-58
2022/06/03 07:34:54;;;;;;;9.70;3.13;;;;;;;20.14;52.63;95314.70;1659553;84;20978;-63
2022/06/03 07:37:31;;;;;;;6.40;2.72;;;;;;;20.21;53.11;95308.68;1659404;85;21226;-63
2022/06/03 07:40:09;;;;;;;2.85;2.60;;;;;;;20.33;53.26;95318.66;1660652;84;21014;-60
2022/06/03 07:42:45;;;;;;;2.65;2.45;;;;;;;20.42;52.61;95315.08;1663018;83;20992;-63
2022/06/03 07:45:40;;;;;;;8.78;2.75;;;;;;;20.50;52.19;95316.14;1677294;83;21235;-57
2022/06/03 07:48:21;;;;;;;2.92;2.72;;;;;;;20.62;51.72;95309.99;1682487;83;21068;-59
2022/06/03 07:51:18;;;;;;;3.20;2.90;;;;;;;20.70;51.64;95318.82;1655568;83;21019;-56
2022/06/03 07:53:50;;;;;;;2.83;2.60;;;;;;;20.72;51.45;95314.14;1651063;85;21030;-57
2022/06/03 07:56:22;;;;;;;6.12;3.00;;;;;;;20.74;50.72;95313.75;1666513;85;21010;-59
2022/06/03 07:58:53;;;;;;;14.03;3.67;;;;;;;20.79;50.93;95319.25;1663808;85;21243;-63
2022/06/03 08:01:25;;;;;;;5.85;3.52;;;;;;;20.90;50.40;95326.36;1668717;83;21039;-59
2022/06/03 08:03:52;;;;;;;6.25;2.70;;;;;;;21.02;50.63;95321.72;1650482;85;21216;-62
2022/06/03 08:12:15;;;;;;;5.08;3.42;;;;;;;21.28;49.02;95311.78;1671160;83;21144;-62
2022/06/03 08:14:42;;;;;;;4.50;2.77;;;;;;;21.26;49.16;95315.72;1633315;83;21439;-56
2022/06/03 08:17:10;;;;;;;3.05;2.72;;;;;;;21.37;48.46;95312.95;1653503;84;21490;-59
2022/06/03 08:19:38;;;;;;;4.00;2.70;;;;;;;21.45;48.54;95319.61;1655002;83;21022;-57
2022/06/03 08:22:08;;;;;;;3.30;2.50;;;;;;;21.46;47.43;95308.55;1651474;85;21015;-57
2022/06/03 08:24:38;;;;;;;2.87;2.67;;;;;;;21.38;48.16;95312.46;1650377;85;21259;-55
2022/06/03 08:27:13;;;;;;;8.93;3.15;;;;;;;21.30;47.60;95310.00;1656519;84;21160;-58
2022/06/03 08:29:45;;;;;;;2.98;2.62;;;;;;;21.28;49.12;95311.78;1649378;86;20998;-57
2022/06/03 08:32:22;;;;;;;3.15;2.65;;;;;;;21.36;48.61;95308.63;1649854;86;21091;-56
2022/06/03 08:34:51;;;;;;;4.53;2.50;;;;;;;21.47;48.24;95305.87;1628183;87;21000;-57
2022/06/03 08:37:29;;;;;;;3.40;2.90;;;;;;;21.57;48.21;95311.36;1673883;83;21175;-62
2022/06/03 08:39:59;;;;;;;3.42;2.87;;;;;;;21.60;47.45;95306.14;1651715;83;21054;-57
2022/06/03 08:42:40;;;;;;;2.72;2.52;;;;;;;21.69;46.83;95298.95;1655223;85;21013;-59
2022/06/03 08:45:37;;;;;;;3.12;2.50;;;;;;;21.79;47.56;95297.44;1645719;84;21018;-60
2022/06/03 08:48:16;;;;;;;2.92;2.58;;;;;;;21.82;47.00;95295.05;1676791;85;20990;-63
2022/06/03 08:50:58;;;;;;;2.80;2.52;;;;;;;21.78;46.18;95286.09;1658021;84;21330;-59
2022/06/03 08:53:45;;;;;;;2.90;2.58;;;;;;;21.74;46.91;95290.57;1614786;85;21029;-64
2022/06/03 08:56:26;;;;;;;2.58;2.37;;;;;;;21.76;46.77;95288.03;1638072;86;21043;-58
2022/06/03 08:59:05;;;;;;;4.22;2.75;;;;;;;21.82;46.96;95282.44;1659084;85;21006;-56
2022/06/03 09:01:38;;;;;;;3.30;2.62;;;;;;;21.92;47.06;95278.11;1663130;84;21034;-59
2022/06/03 09:04:28;;;;;;;6.28;2.80;;;;;;;22.04;45.95;95281.18;1657275;85;21926;-59
2022/06/03 09:07:20;;;;;;;2.62;2.40;;;;;;;22.11;45.13;95272.25;1664568;83;21010;-57
2022/06/03 09:10:07;;;;;;;3.98;2.92;;;;;;;22.18;45.64;95270.36;1648961;86;21012;-58
2022/06/03 09:12:43;;;;;;;2.87;2.67;;;;;;;22.26;47.01;95276.98;1650222;86;20994;-59
2022/06/03 09:15:15;;;;;;;4.15;2.83;;;;;;;22.36;47.38;95274.67;1649291;86;21031;-58
2022/06/03 09:18:17;;;;;;;3.42;3.12;;;;;;;22.46;46.32;95268.32;1627288;86;21153;-67
2022/06/03 09:21:08;;;;;;;3.05;2.75;;;;;;;22.59;47.34;95259.38;1649704;86;21560;-61
2022/06/03 09:23:46;;;;;;;5.40;3.45;;;;;;;22.66;47.09;95261.02;1658205;84;21094;-56
2022/06/03 09:26:27;;;;;;;8.23;4.50;;;;;;;22.78;47.25;95261.75;1651931;83;21442;-60
2022/06/03 09:28:54;;;;;;;4.20;3.10;;;;;;;22.91;46.09;95258.55;1669399;84;21061;-59
2022/06/03 09:31:22;;;;;;;3.10;2.62;;;;;;;23.08;46.47;95259.88;1668935;83;21134;-62
2022/06/03 09:33:50;;;;;;;3.87;3.05;;;;;;;23.18;44.90;95251.34;1667610;83;21034;-60
2022/06/03 09:36:18;;;;;;;3.27;2.98;;;;;;;23.21;45.78;95253.85;1664546;83;21156;-59
2022/06/03 09:39:00;;;;;;;6.60;3.35;;;;;;;23.24;46.06;95248.60;1644674;85;21501;-60
2022/06/03 09:41:32;;;;;;;5.15;3.35;;;;;;;23.26;46.64;95241.08;1678113;83;21513;-63
2022/06/03 09:44:02;;;;;;;3.20;2.90;;;;;;;23.30;44.79;95249.36;1667356;83;21378;-59
2022/06/03 09:46:30;;;;;;;5.53;3.27;;;;;;;23.28;44.06;95244.91;1646138;84;21002;-59
2022/06/03 09:49:00;;;;;;;5.22;3.22;;;;;;;23.27;45.68;95246.19;1675042;84;21000;-59
2022/06/03 09:52:03;;;;;;;5.30;3.50;;;;;;;23.36;46.36;95242.31;1658554;83;21077;-61
2022/06/03 09:54:37;;;;;;;5.50;3.00;;;;;;;23.42;46.55;95244.45;1637342;84;21043;-66
2022/06/03 09:57:28;;;;;;;7.87;4.83;;;;;;;23.51;45.54;95235.07;1680348;84;21116;-59
2022/06/03 10:00:03;;;;;;;4.87;3.12;;;;;;;23.62;45.48;95236.42;1663208;83;20990;-58
2022/06/03 10:02:34;;;;;;;5.37;2.80;;;;;;;23.67;45.81;95236.24;1667965;84;20990;-63
2022/06/03 10:05:06;;;;;;;4.97;3.02;;;;;;;23.77;46.56;95231.19;1650041;85;21051;-58
2022/06/03 10:07:37;;;;;;;4.37;3.00;;;;;;;23.83;46.19;95232.59;1675041;84;20999;-58
2022/06/03 10:13:00;;;;;;;5.47;4.58;;;;;;;24.02;45.38;95227.22;1677392;83;21015;-59
2022/06/03 10:15:41;;;;;;;3.90;3.58;;;;;;;24.11;45.18;95218.44;1630669;85;20989;-58
2022/06/03 10:18:24;;;;;;;3.83;3.25;;;;;;;24.19;45.44;95224.38;1654407;84;21527;-60
2022/06/03 10:20:54;;;;;;;;;;;;;;;24.26;45.17;95228.05;1671639;85;21006;-57
2022/06/03 10:23:26;;;;;;;3.80;2.85;;;;;;;24.31;43.54;95218.01;1662022;85;21127;-57
2022/06/03 10:26:01;;;;;;;7.08;6.37;;;;;;;24.35;43.38;95210.06;1650763;85;21006;-58
2022/06/03 10:28:35;;;;;;;3.83;3.40;;;;;;;24.51;44.79;95209.11;1667354;84;20994;-58
2022/06/03 10:31:09;;;;;;;5.08;3.10;;;;;;;24.84;43.18;95205.98;1614033;87;21099;-57
2022/06/03 10:33:37;;;;;;;5.17;3.50;;;;;;;25.21;43.13;95201.84;1646221;86;21106;-56
2022/06/03 10:36:07;;;;;;;3.85;3.47;;;;;;;25.55;43.43;95193.84;1643574;86;21297;-56
2022/06/03 10:38:36;;;;;;;5.15;3.30;;;;;;;25.88;42.25;95192.59;1671681;83;20994;-57
2022/06/03 10:41:09;;;;;;;9.83;3.80;;;;;;;26.24;42.05;95186.08;1650448;85;20991;-57
2022/06/03 10:43:37;;;;;;;;;;;;;;;26.55;41.90;95194.55;1653787;86;21108;-56
2022/06/03 11:01:56;;;;;;;5.45;2.90;;;;;;;27.53;40.17;95178.31;1822234;77;21570;-60
2022/06/03 11:04:39;;;;;;;4.35;3.05;;;;;;;27.74;37.85;95172.08;1817165;77;21484;-61
2022/06/03 11:07:25;;;;;;;4.17;3.00;;;;;;;27.93;37.40;95170.48;1808848;77;21084;-56
2022/06/03 11:09:59;;;;;;;4.20;2.72;;;;;;;28.23;38.55;95171.53;1824190;77;21039;-57
2022/06/03 11:12:30;;;;;;;6.62;3.05;;;;;;;28.49;38.52;95170.75;1826708;77;21223;-57
2022/06/03 11:14:58;;;;;;;3.17;2.85;;;;;;;28.73;37.88;95168.19;1807674;77;21417;-59
2022/06/03 11:17:36;;;;;;;3.47;3.17;;;;;;;29.05;37.09;95162.27;1782321;79;21069;-55
2022/06/03 11:20:07;;;;;;;3.35;2.80;;;;;;;29.35;36.04;95157.41;1778690;79;21158;-62
2022/06/03 11:22:36;;;;;;;5.53;2.75;;;;;;;29.61;35.66;95159.98;1748561;78;21109;-55
2022/06/03 11:25:25;;;;;;;2.85;2.40;;;;;;;29.83;35.67;95153.64;1793736;78;21231;-56
2022/06/03 11:28:28;;;;;;;4.03;2.62;;;;;;;30.23;36.02;95149.09;1799494;78;21504;-56
2022/06/03 11:31:18;;;;;;;2.87;2.00;;;;;;;30.62;33.81;95137.83;1764228;79;21509;-55
2022/06/03 11:33:57;;;;;;;4.65;2.45;;;;;;;31.01;34.38;95145.06;1784002;78;21086;-55
2022/06/03 11:36:29;;;;;;;2.87;2.15;;;;;;;31.22;32.90;95139.91;1809718;77;21521;-58
2022/06/03 11:39:12;;;;;;;4.72;2.50;;;;;;;31.38;34.11;95132.84;1794345;78;21456;-57
2022/06/03 11:41:58;;;;;;;3.55;2.60;;;;;;;31.73;32.49;95133.84;1783089;78;20989;-58
2022/06/03 11:44:54;;;;;;;3.92;2.37;;;;;;;32.01;33.06;95131.42;1806238;78;21540;-64
2022/06/03 11:47:41;;;;;;;4.83;2.37;;;;;;;32.17;31.71;95127.13;1794495;79;21498;-60
2022/06/03 11:50:10;;;;;;;3.08;2.17;;;;;;;32.29;30.88;95123.92;1797853;78;21445;-66
2022/06/03 11:52:37;;;;;;;4.37;2.40;;;;;;;32.39;30.18;95113.41;1799075;78;21137;-63
2022/06/03 11:55:05;;;;;;;5.25;2.10;;;;;;;32.40;31.16;95121.36;1792703;78;21550;-59
2022/06/03 11:57:33;;;;;;;3.67;2.15;;;;;;;32.53;31.65;95125.34;1782420;78;20999;-57
2022/06/03 12:00:09;;;;;;;4.60;2.00;;;;;;;32.53;32.55;95115.36;1787086;78;21904;-59
2022/06/03 12:02:53;;;;;;;2.47;2.12;;;;;;;32.60;30.70;95119.48;1778342;78;21035;-57
2022/06/03 12:05:31;;;;;;;4.35;1.90;;;;;;;32.69;31.59;95106.02;1758635;78;21118;-63
2022/06/03 12:08:14;;;;;;;2.87;2.05;;;;;;;32.89;31.62;95114.19;1754610;79;21545;-61
2022/06/03 12:10:48;;;;;;;3.37;2.35;;;;;;;33.08;30.88;95119.30;1791765;78;21038;-59
2022/06/03 12:13:26;;;;;;;6.42;2.17;;;;;;;33.28;31.55;95110.36;1783945;78;20885;-57
2022/06/03 12:15:58;;;;;;;2.33;2.08;;;;;;;33.37;30.74;95106.08;1793590;78;21525;-56
2022/06/03 12:18:37;;;;;;;5.70;2.35;;;;;;;33.25;29.73;95101.55;1791630;78;21209;-56
2022/06/03 12:21:14;;;;;;;2.67;1.90;;;;;;;33.44;30.30;95103.13;1783412;79;21205;-56
2022/06/03 12:23:54;;;;;;;2.12;1.87;;;;;;;33.63;29.02;95098.98;1774038;78;20990;-57
2022/06/03 12:26:29;;;;;;;7.97;2.02;;;;;;;33.72;29.91;95091.85;1778455;78;21937;-62
2022/06/03 12:29:12;;;;;;;5.55;2.50;;;;;;;33.98;29.61;95105.44;1794160;79;21530;-59
2022/06/03 12:31:45;;;;;;;2.83;1.82;;;;;;;34.05;28.72;95091.73;1785515;78;21098;-58
2022/06/03 12:34:26;;;;;;;3.08;1.67;;;;;;;33.89;28.00;95091.80;1766408;79;21076;-60
2022/06/03 12:37:02;;;;;;;3.47;1.85;;;;;;;33.93;29.59;95086.41;1788517;78;21041;-56
2022/06/03 12:39:34;;;;;;;2.70;1.60;;;;;;;34.12;29.02;95084.41;1774996;79;21019;-57
2022/06/03 12:42:11;;;;;;;5.95;1.98;;;;;;;34.25;28.58;95080.50;1779136;78;21026;-56
2022/06/03 12:44:46;;;;;;;1.95;1.70;;;;;;;34.13;28.52;95083.80;1803358;77;21256;-58
2022/06/03 12:47:37;;;;;;;2.62;1.55;;;;;;;33.97;28.29;95081.08;1776937;77;20988;-59
2022/06/03 12:50:11;;;;;;;2.37;1.75;;;;;;;33.96;28.45;95092.43;1817156;77;20993;-58
2022/06/03 12:52:41;;;;;;;2.30;1.70;;;;;;;33.85;28.76;95074.35;1822881;77;21016;-58
2022/06/03 12:55:14;;;;;;;4.70;1.90;;;;;;;33.75;29.58;95080.67;1764144;79;20945;-57
2022/06/03 12:57:56;;;;;;;1.70;1.50;;;;;;;33.52;29.97;95078.77;1780587;78;21265;-57
2022/06/03 13:00:40;;;;;;;2.80;1.90;;;;;;;33.50;29.81;95073.64;1789699;79;21173;-56
2022/06/03 13:03:19;;;;;;;2.30;2.10;;;;;;;33.49;29.77;95072.83;1738588;79;21857;-57
2022/06/03 13:05:53;;;;;;;5.92;1.90;;;;;;;33.54;29.56;95075.39;1768953;78;21057;-56
2022/06/03 13:08:30;;;;;;;3.22;2.02;;;;;;;33.72;29.34;95069.01;1747524;80;22357;-55
2022/06/03 13:11:06;;;;;;;2.15;1.65;;;;;;;33.87;28.68;95075.94;1789579;78;21075;-58
2022/06/03 13:13:49;;;;;;;3.55;1.72;;;;;;;33.61;29.36;95074.55;1737277;79;21052;-56
2022/06/03 13:16:35;;;;;;;4.25;1.87;;;;;;;33.29;29.46;95068.33;1780475;78;21105;-62
2022/06/03 13:19:22;;;;;;;3.40;1.80;;;;;;;33.14;30.18;95075.61;1781965;79;21008;-58
2022/06/03 13:22:04;;;;;;;2.87;2.10;;;;;;;33.09;30.29;95071.66;1768309;78;21049;-56
2022/06/03 13:24:34;;;;;;;4.60;2.00;;;;;;;33.01;30.33;95067.39;1768410;79;21092;-62
2022/06/03 13:27:25;;;;;;;2.55;2.33;;;;;;;32.87;30.48;95072.68;1774213;78;21099;-58
2022/06/03 13:30:00;;;;;;;4.10;2.17;;;;;;;32.70;30.46;95066.20;1762335;78;21119;-58
2022/06/03 13:32:43;;;;;;;2.00;1.80;;;;;;;31.93;31.10;95065.21;1784365;78;21118;-55
2022/06/03 13:35:32;;;;;;;2.67;2.00;;;;;;;31.11;31.79;95053.63;1777106;79;21024;-57
2022/06/03 13:38:17;;;;;;;5.08;2.15;;;;;;;30.11;33.09;95060.61;1785579;78;22365;-64
2022/06/03 13:42:57;;;;;;;3.10;2.40;;;;;;;29.75;34.72;95051.48;1751389;79;21005;-62
2022/06/03 13:43:22;;;;;;;3.02;2.02;;;;;;;29.99;34.23;95049.50;1747429;80;21013;-56